Time;durP1;ratioP1;P1;durP2;ratioP2;P2;SDS_P1;SDS_P2;PMS_P1;PMS_P2;Temp;Humidity;BMP_temperature;BMP_pressure;BME280_temperature;BME280_humidity;BME280_pressure;Samples;Min_cycle;Max_cycle;Signal;HPM_P1;HPM_P2
2023/11/03 00:01:47;;;;;;;1.48;1.38;;;;;;;;;;4133558;28;20042;-67
2023/11/03 00:03:48;;;;;;;1.95;1.10;;;;;;;;;;4133542;28;20042;-67
2023/11/03 00:05:51;;;;;;;1.25;1.25;;;;;;;;;;4133212;28;20593;-67
2023/11/03 00:07:53;;;;;;;1.30;1.20;;;;;;;;;;4143500;28;20116;-67
2023/11/03 00:09:55;;;;;;;1.20;1.20;;;;;;;;;;4135744;28;20603;-67
2023/11/03 00:11:57;;;;;;;1.30;1.30;;;;;;;;;;4133309;28;20292;-67
2023/11/03 00:13:59;;;;;;;1.60;1.60;;;;;;;;;;4133268;28;20056;-67
2023/11/03 00:16:00;;;;;;;2.00;1.23;;;;;;;;;;4133207;28;20077;-67
2023/11/03 00:18:02;;;;;;;4.00;3.63;;;;;;;;;;4133095;28;20119;-66
2023/11/03 00:20:05;;;;;;;2.47;2.47;;;;;;;;;;4133391;28;20050;-67
2023/11/03 00:22:07;;;;;;;1.70;1.70;;;;;;;;;;4128418;28;20046;-67
2023/11/03 00:24:09;;;;;;;1.88;1.88;;;;;;;;;;4112912;28;20585;-67
2023/11/03 00:26:11;;;;;;;1.60;1.60;;;;;;;;;;4132959;28;20034;-66
2023/11/03 00:28:13;;;;;;;1.70;1.70;;;;;;;;;;4133222;28;20572;-67
2023/11/03 00:30:14;;;;;;;1.60;1.60;;;;;;;;;;4132794;28;20073;-67
2023/11/03 00:32:16;;;;;;;1.50;1.40;;;;;;;;;;4132764;28;20057;-66
2023/11/03 00:34:18;;;;;;;2.47;1.50;;;;;;;;;;4133006;28;20078;-66
2023/11/03 00:36:20;;;;;;;1.48;1.48;;;;;;;;;;4126786;28;20448;-66
2023/11/03 00:38:21;;;;;;;1.65;1.65;;;;;;;;;;4116967;28;20121;-66
2023/11/03 00:40:23;;;;;;;2.40;2.40;;;;;;;;;;4130529;28;20054;-66
2023/11/03 00:42:25;;;;;;;2.35;2.35;;;;;;;;;;4133105;28;20293;-66
2023/11/03 00:44:27;;;;;;;1.98;1.95;;;;;;;;;;4132920;28;20085;-66
2023/11/03 00:46:29;;;;;;;1.20;1.20;;;;;;;;;;4132884;28;20541;-67
2023/11/03 00:48:30;;;;;;;1.75;1.27;;;;;;;;;;4132474;28;20468;-67
2023/11/03 00:50:32;;;;;;;1.50;1.40;;;;;;;;;;4132622;28;20054;-67
2023/11/03 00:52:34;;;;;;;2.08;2.03;;;;;;;;;;4132745;28;20117;-67
2023/11/03 00:54:35;;;;;;;1.77;1.77;;;;;;;;;;4132658;28;20093;-66
2023/11/03 00:56:40;;;;;;;1.20;1.20;;;;;;;;;;4132714;28;20958;-67
2023/11/03 00:58:42;;;;;;;1.73;1.73;;;;;;;;;;4132569;28;20695;-67
2023/11/03 01:00:43;;;;;;;1.70;1.70;;;;;;;;;;4132590;28;20434;-66
2023/11/03 01:02:45;;;;;;;3.85;2.05;;;;;;;;;;4132607;28;20052;-67
2023/11/03 01:04:47;;;;;;;1.70;1.70;;;;;;;;;;4147610;28;20486;-67
2023/11/03 01:06:49;;;;;;;1.30;1.30;;;;;;;;;;4148568;28;20450;-67
2023/11/03 01:08:51;;;;;;;1.80;1.17;;;;;;;;;;4143535;28;20038;-66
2023/11/03 01:10:53;;;;;;;1.20;1.20;;;;;;;;;;4132479;28;20046;-66
2023/11/03 01:12:55;;;;;;;1.20;1.20;;;;;;;;;;4132410;28;20046;-66
2023/11/03 01:14:57;;;;;;;1.40;1.40;;;;;;;;;;4132385;28;20050;-66
2023/11/03 01:16:58;;;;;;;1.30;1.30;;;;;;;;;;4130740;28;20100;-66
2023/11/03 01:19:04;;;;;;;1.73;1.73;;;;;;;;;;4132003;28;20106;-67
2023/11/03 01:21:15;;;;;;;1.50;1.50;;;;;;;;;;4132302;28;20316;-67
2023/11/03 01:23:17;;;;;;;1.40;1.40;;;;;;;;;;4132254;28;20034;-67
2023/11/03 01:25:19;;;;;;;1.38;1.30;;;;;;;;;;4132134;28;20042;-67
2023/11/03 01:27:21;;;;;;;1.27;1.27;;;;;;;;;;4114883;28;20049;-67
2023/11/03 01:29:22;;;;;;;1.48;1.20;;;;;;;;;;4132182;28;20034;-67
2023/11/03 01:31:24;;;;;;;1.40;1.30;;;;;;;;;;4132284;28;20742;-67
2023/11/03 01:33:26;;;;;;;1.40;1.40;;;;;;;;;;4124907;28;20054;-67
2023/11/03 01:35:28;;;;;;;1.42;1.33;;;;;;;;;;4115961;28;20439;-67
2023/11/03 01:37:29;;;;;;;1.30;1.30;;;;;;;;;;4116002;28;20055;-66
2023/11/03 01:39:31;;;;;;;1.00;1.00;;;;;;;;;;4131704;28;20506;-67
2023/11/03 01:41:33;;;;;;;1.23;1.23;;;;;;;;;;4114863;28;20289;-66
2023/11/03 01:43:36;;;;;;;1.50;1.50;;;;;;;;;;4131984;28;20077;-66
2023/11/03 01:45:37;;;;;;;1.85;1.67;;;;;;;;;;4131825;28;20328;-67
2023/11/03 01:47:39;;;;;;;1.42;1.42;;;;;;;;;;4131787;28;20096;-67
2023/11/03 01:49:41;;;;;;;1.70;1.70;;;;;;;;;;4131559;28;20070;-67
2023/11/03 01:51:43;;;;;;;1.60;1.60;;;;;;;;;;4131760;28;20146;-67
2023/11/03 01:53:47;;;;;;;1.52;1.52;;;;;;;;;;4131712;28;20042;-66
2023/11/03 01:55:49;;;;;;;;;;;;;;;;;;4114825;28;20055;-67
2023/11/03 01:57:50;;;;;;;1.92;1.40;;;;;;;;;;4131012;28;19933;-67
2023/11/03 01:59:53;;;;;;;1.70;1.30;;;;;;;;;;4137680;28;20398;-67
2023/11/03 02:01:55;;;;;;;1.33;1.33;;;;;;;;;;4147858;28;20490;-67
2023/11/03 02:03:57;;;;;;;1.40;1.40;;;;;;;;;;4147627;28;20506;-66
2023/11/03 02:05:58;;;;;;;1.55;1.55;;;;;;;;;;4147348;28;20050;-66
2023/11/03 02:08:00;;;;;;;1.50;1.50;;;;;;;;;;4147764;28;20042;-67
2023/11/03 02:10:06;;;;;;;1.45;1.45;;;;;;;;;;4132844;28;20046;-67
2023/11/03 02:12:09;;;;;;;1.27;1.27;;;;;;;;;;4131510;28;20088;-67
2023/11/03 02:14:11;;;;;;;1.63;1.63;;;;;;;;;;4131323;28;20046;-67
2023/11/03 02:16:12;;;;;;;2.10;2.10;;;;;;;;;;4130007;28;20496;-67
2023/11/03 02:18:17;;;;;;;1.50;1.50;;;;;;;;;;4113682;28;20055;-68
2023/11/03 02:20:21;;;;;;;1.95;1.85;;;;;;;;;;4131071;28;20046;-67
2023/11/03 02:22:22;;;;;;;1.77;1.67;;;;;;;;;;4130995;28;20089;-67
2023/11/03 02:24:24;;;;;;;2.13;2.13;;;;;;;;;;4131104;28;20062;-67
2023/11/03 02:26:26;;;;;;;2.13;1.85;;;;;;;;;;4130917;28;20259;-67
2023/11/03 02:28:27;;;;;;;2.00;2.00;;;;;;;;;;4131105;28;20096;-66
2023/11/03 02:30:29;;;;;;;1.73;1.73;;;;;;;;;;4117934;28;20038;-68
2023/11/03 02:32:32;;;;;;;1.37;1.37;;;;;;;;;;4114663;28;20298;-67
2023/11/03 02:34:34;;;;;;;1.52;1.40;;;;;;;;;;4114610;28;20046;-67
2023/11/03 02:36:36;;;;;;;1.58;1.50;;;;;;;;;;4114702;28;20043;-67
2023/11/03 02:38:38;;;;;;;1.77;1.67;;;;;;;;;;4114471;28;20035;-67
2023/11/03 02:40:40;;;;;;;1.50;1.50;;;;;;;;;;4115060;28;20122;-67
2023/11/03 02:42:41;;;;;;;1.70;1.60;;;;;;;;;;4114837;28;20094;-67
2023/11/03 02:44:43;;;;;;;1.60;1.58;;;;;;;;;;4114837;28;20443;-67
2023/11/03 02:46:48;;;;;;;1.40;1.40;;;;;;;;;;4117423;28;20047;-67
2023/11/03 02:48:50;;;;;;;1.67;1.67;;;;;;;;;;4130583;28;20053;-67
2023/11/03 02:50:51;;;;;;;2.38;2.38;;;;;;;;;;4130561;28;20042;-68
2023/11/03 02:52:54;;;;;;;2.03;2.03;;;;;;;;;;4130563;28;20039;-66
2023/11/03 02:54:56;;;;;;;1.35;1.35;;;;;;;;;;4130779;28;20078;-67
2023/11/03 02:56:58;;;;;;;2.13;1.63;;;;;;;;;;4143221;28;20056;-66
2023/11/03 02:58:59;;;;;;;1.60;1.60;;;;;;;;;;4129485;28;20039;-67
2023/11/03 03:01:01;;;;;;;2.67;1.97;;;;;;;;;;4147131;28;20053;-67
2023/11/03 03:03:06;;;;;;;1.80;1.75;;;;;;;;;;4146793;28;20641;-67
2023/11/03 03:05:08;;;;;;;1.45;1.45;;;;;;;;;;4146355;28;20073;-67
2023/11/03 03:07:10;;;;;;;;;;;;;;;;;;4147640;28;20084;-67
2023/11/03 03:09:15;;;;;;;4.15;1.60;;;;;;;;;;4138907;28;19926;-66
2023/11/03 03:11:17;;;;;;;1.50;1.50;;;;;;;;;;4130421;28;20045;-66
2023/11/03 03:13:18;;;;;;;1.80;1.73;;;;;;;;;;4130483;28;20405;-65
2023/11/03 03:15:20;;;;;;;1.87;1.87;;;;;;;;;;4130155;28;20285;-66
2023/11/03 03:17:22;;;;;;;2.05;1.60;;;;;;;;;;4130332;28;20338;-66
2023/11/03 03:19:24;;;;;;;1.58;1.50;;;;;;;;;;4130598;28;20050;-67
2023/11/03 03:21:26;;;;;;;1.83;1.83;;;;;;;;;;4130494;28;20125;-66
2023/11/03 03:23:27;;;;;;;1.40;1.40;;;;;;;;;;4130418;28;20054;-66
2023/11/03 03:25:29;;;;;;;1.27;1.27;;;;;;;;;;4126946;28;20341;-66
2023/11/03 03:27:30;;;;;;;1.60;1.60;;;;;;;;;;4116850;28;20830;-66
2023/11/03 03:29:32;;;;;;;1.20;1.20;;;;;;;;;;4117709;28;20050;-66
2023/11/03 03:31:34;;;;;;;1.73;1.63;;;;;;;;;;4100254;29;20055;-67
2023/11/03 03:33:35;;;;;;;1.10;1.10;;;;;;;;;;4100766;29;20053;-67
2023/11/03 03:35:37;;;;;;;1.20;1.20;;;;;;;;;;4117428;28;20054;-66
2023/11/03 03:37:39;;;;;;;1.10;1.10;;;;;;;;;;4117526;28;20521;-66
2023/11/03 03:39:40;;;;;;;2.47;1.30;;;;;;;;;;4099929;29;20058;-67
2023/11/03 03:41:42;;;;;;;1.80;1.37;;;;;;;;;;4117787;28;20318;-66
2023/11/03 03:43:44;;;;;;;1.30;1.30;;;;;;;;;;4120236;28;20371;-66
2023/11/03 03:45:46;;;;;;;1.42;1.33;;;;;;;;;;4133699;28;20394;-66
2023/11/03 03:47:47;;;;;;;2.38;1.60;;;;;;;;;;4118912;28;20043;-67
2023/11/03 03:49:49;;;;;;;2.00;1.87;;;;;;;;;;4117463;28;20574;-67
2023/11/03 03:51:51;;;;;;;1.95;1.80;;;;;;;;;;4120489;28;20117;-67
2023/11/03 03:53:52;;;;;;;2.75;2.65;;;;;;;;;;4149851;28;20034;-67
2023/11/03 03:55:54;;;;;;;2.67;2.47;;;;;;;;;;4149684;28;20130;-67
2023/11/03 03:57:56;;;;;;;7.53;3.23;;;;;;;;;;4149415;28;20465;-68
2023/11/03 03:59:57;;;;;;;1.43;1.33;;;;;;;;;;4149431;28;20307;-68
2023/11/03 04:01:59;;;;;;;7.70;2.93;;;;;;;;;;4136577;28;20324;-67
2023/11/03 04:04:01;;;;;;;1.92;1.83;;;;;;;;;;4133169;28;20121;-67
2023/11/03 04:06:04;;;;;;;3.90;1.95;;;;;;;;;;4132995;28;20058;-67
2023/11/03 04:08:06;;;;;;;3.47;1.80;;;;;;;;;;4133237;28;20499;-66
2023/11/03 04:10:08;;;;;;;10.82;3.65;;;;;;;;;;4133263;28;20494;-67
2023/11/03 04:12:10;;;;;;;5.85;2.70;;;;;;;;;;4132783;28;20050;-67
2023/11/03 04:14:12;;;;;;;2.70;1.75;;;;;;;;;;4133328;28;20038;-67
2023/11/03 04:16:13;;;;;;;5.75;2.13;;;;;;;;;;4132951;28;20859;-66
2023/11/03 04:18:15;;;;;;;6.13;2.80;;;;;;;;;;4133054;28;20154;-67
2023/11/03 04:20:17;;;;;;;9.27;3.28;;;;;;;;;;4132959;28;20069;-67
2023/11/03 04:22:20;;;;;;;12.38;2.47;;;;;;;;;;4126766;28;20081;-68
2023/11/03 04:24:23;;;;;;;5.55;2.30;;;;;;;;;;4133394;28;20135;-67
2023/11/03 04:26:25;;;;;;;5.80;1.75;;;;;;;;;;4133010;28;20043;-67
2023/11/03 04:28:26;;;;;;;3.07;2.47;;;;;;;;;;4132857;28;20487;-67
2023/11/03 04:30:28;;;;;;;3.10;1.67;;;;;;;;;;4133088;28;20290;-67
2023/11/03 04:32:29;;;;;;;4.73;1.93;;;;;;;;;;4132662;28;20285;-67
2023/11/03 04:34:31;;;;;;;1.90;1.80;;;;;;;;;;4132758;28;20065;-67
2023/11/03 04:36:33;;;;;;;2.03;1.90;;;;;;;;;;4132727;28;20042;-67
2023/11/03 04:38:35;;;;;;;5.35;2.05;;;;;;;;;;4131803;28;20042;-67
2023/11/03 04:40:37;;;;;;;1.98;1.85;;;;;;;;;;4132300;28;20049;-67
2023/11/03 04:42:38;;;;;;;4.47;2.03;;;;;;;;;;4132761;28;20050;-67
2023/11/03 04:44:40;;;;;;;2.10;1.90;;;;;;;;;;4114664;28;20405;-67
2023/11/03 04:46:42;;;;;;;2.80;1.88;;;;;;;;;;4126712;28;21164;-67
2023/11/03 04:48:44;;;;;;;3.55;1.90;;;;;;;;;;4130250;28;20061;-67
2023/11/03 04:50:46;;;;;;;;;;;;;;;;;;4149212;28;20038;-67
2023/11/03 04:52:49;;;;;;;3.00;1.87;;;;;;;;;;4148679;28;19964;-67
2023/11/03 04:54:51;;;;;;;2.10;2.05;;;;;;;;;;4148912;28;20038;-67
2023/11/03 04:56:53;;;;;;;7.97;2.13;;;;;;;;;;4148598;28;20042;-66
2023/11/03 04:58:55;;;;;;;3.58;2.55;;;;;;;;;;4148674;28;20041;-66
2023/11/03 05:00:56;;;;;;;5.23;3.20;;;;;;;;;;4148635;28;20049;-67
2023/11/03 05:02:58;;;;;;;3.85;1.83;;;;;;;;;;4148916;28;20058;-67
2023/11/03 05:05:00;;;;;;;2.22;2.08;;;;;;;;;;4134156;28;20046;-67
2023/11/03 05:07:02;;;;;;;1.95;1.85;;;;;;;;;;4132270;28;20111;-67
2023/11/03 05:09:06;;;;;;;3.15;2.10;;;;;;;;;;4132130;28;20065;-67
2023/11/03 05:11:08;;;;;;;2.38;2.15;;;;;;;;;;4131742;28;20038;-67
2023/11/03 05:13:09;;;;;;;5.78;1.80;;;;;;;;;;4132093;28;20050;-67
2023/11/03 05:15:11;;;;;;;7.30;2.33;;;;;;;;;;4125964;28;20125;-67
2023/11/03 05:17:13;;;;;;;2.05;1.95;;;;;;;;;;4122639;28;20495;-67
2023/11/03 05:19:15;;;;;;;2.43;2.00;;;;;;;;;;4116192;28;20105;-66
2023/11/03 05:21:17;;;;;;;1.73;1.63;;;;;;;;;;4116178;28;20089;-67
2023/11/03 05:23:18;;;;;;;3.60;2.47;;;;;;;;;;4125132;28;20101;-67
2023/11/03 05:25:20;;;;;;;7.68;3.13;;;;;;;;;;4132207;28;20044;-67
2023/11/03 05:27:23;;;;;;;2.38;2.20;;;;;;;;;;4131954;28;20053;-67
2023/11/03 05:29:25;;;;;;;2.60;1.90;;;;;;;;;;4125686;28;20043;-68
2023/11/03 05:31:29;;;;;;;2.25;2.15;;;;;;;;;;4114512;28;20043;-67
2023/11/03 05:33:31;;;;;;;3.25;1.88;;;;;;;;;;4131996;28;20557;-67
2023/11/03 05:35:33;;;;;;;2.00;1.83;;;;;;;;;;4131944;28;20045;-67
2023/11/03 05:37:34;;;;;;;3.63;2.08;;;;;;;;;;4125348;28;20045;-66
2023/11/03 05:39:36;;;;;;;3.23;2.10;;;;;;;;;;4117976;28;20381;-67
2023/11/03 05:41:38;;;;;;;1.92;1.83;;;;;;;;;;4124828;28;20096;-67
2023/11/03 05:43:40;;;;;;;5.55;1.67;;;;;;;;;;4131967;28;20490;-69
2023/11/03 05:45:42;;;;;;;2.07;1.97;;;;;;;;;;4144488;28;20045;-67
2023/11/03 05:47:45;;;;;;;3.15;2.17;;;;;;;;;;4133480;28;20285;-67
2023/11/03 05:49:47;;;;;;;2.38;2.17;;;;;;;;;;4131555;28;20038;-67
2023/11/03 05:51:49;;;;;;;2.85;1.77;;;;;;;;;;4131599;28;20538;-66
2023/11/03 05:53:51;;;;;;;5.75;2.15;;;;;;;;;;4131712;28;20042;-66
2023/11/03 05:55:53;;;;;;;4.80;2.65;;;;;;;;;;4127202;28;20046;-67
2023/11/03 05:57:55;;;;;;;5.57;3.00;;;;;;;;;;4129676;28;20054;-67
2023/11/03 05:59:56;;;;;;;3.87;2.20;;;;;;;;;;4130277;28;20046;-67
2023/11/03 06:01:58;;;;;;;1.50;1.30;;;;;;;;;;4130218;28;20289;-67
2023/11/03 06:04:00;;;;;;;3.23;2.10;;;;;;;;;;4130998;28;20058;-66
2023/11/03 06:06:02;;;;;;;4.38;2.22;;;;;;;;;;4131043;28;20294;-67
2023/11/03 06:08:04;;;;;;;3.40;2.50;;;;;;;;;;4131453;28;20093;-66
2023/11/03 06:10:06;;;;;;;7.53;2.35;;;;;;;;;;4131241;28;20104;-66
2023/11/03 06:12:08;;;;;;;3.90;2.45;;;;;;;;;;4131135;28;20046;-67
2023/11/03 06:14:10;;;;;;;6.30;2.67;;;;;;;;;;4128351;28;20050;-67
2023/11/03 06:16:13;;;;;;;4.68;3.10;;;;;;;;;;4115141;28;20064;-66
2023/11/03 06:18:15;;;;;;;2.75;2.50;;;;;;;;;;4115154;28;20047;-67
2023/11/03 06:20:17;;;;;;;6.47;3.45;;;;;;;;;;4115587;28;20050;-65
2023/11/03 06:22:19;;;;;;;13.63;3.60;;;;;;;;;;4116368;28;20469;-64
2023/11/03 06:24:21;;;;;;;4.50;3.25;;;;;;;;;;4130944;28;20079;-65
2023/11/03 06:26:23;;;;;;;4.40;4.20;;;;;;;;;;4113165;28;20097;-64
2023/11/03 06:28:24;;;;;;;3.45;2.92;;;;;;;;;;4130795;28;20286;-65
2023/11/03 06:30:26;;;;;;;4.32;2.88;;;;;;;;;;4130703;28;20050;-65
2023/11/03 06:32:28;;;;;;;4.78;3.67;;;;;;;;;;4130745;28;20038;-66
2023/11/03 06:34:30;;;;;;;5.10;4.67;;;;;;;;;;4130975;28;20390;-64
2023/11/03 06:36:31;;;;;;;5.30;2.60;;;;;;;;;;4130654;28;20281;-64
2023/11/03 06:38:47;;;;;;;5.57;2.28;;;;;;;;;;4130767;28;20073;-65
2023/11/03 06:40:51;;;;;;;12.65;4.38;;;;;;;;;;4134176;28;20042;-66
2023/11/03 06:42:52;;;;;;;5.40;3.35;;;;;;;;;;4129518;28;20145;-65
2023/11/03 06:44:54;;;;;;;10.10;3.42;;;;;;;;;;4147093;28;20074;-65
2023/11/03 06:46:56;;;;;;;4.72;4.07;;;;;;;;;;4121973;28;20125;-64
2023/11/03 06:48:57;;;;;;;4.17;3.00;;;;;;;;;;4129487;28;20046;-64
2023/11/03 06:50:59;;;;;;;5.35;3.85;;;;;;;;;;4129641;28;20050;-65
2023/11/03 06:53:01;;;;;;;3.47;3.20;;;;;;;;;;4129549;28;20046;-64
2023/11/03 06:55:03;;;;;;;3.58;2.40;;;;;;;;;;4130723;28;20292;-65
2023/11/03 06:57:08;;;;;;;6.68;2.65;;;;;;;;;;4130532;28;20446;-64
2023/11/03 06:59:10;;;;;;;9.68;3.17;;;;;;;;;;4130508;28;20540;-65
2023/11/03 07:01:11;;;;;;;5.97;2.67;;;;;;;;;;4130183;28;20062;-65
2023/11/03 07:03:15;;;;;;;5.32;3.50;;;;;;;;;;4130554;28;20062;-66
2023/11/03 07:05:20;;;;;;;3.38;2.30;;;;;;;;;;4130591;28;21896;-64
2023/11/03 07:07:22;;;;;;;8.23;2.78;;;;;;;;;;4130573;28;20046;-65
2023/11/03 07:09:24;;;;;;;9.47;4.10;;;;;;;;;;4130751;28;20130;-64
2023/11/03 07:11:26;;;;;;;13.48;4.00;;;;;;;;;;4118277;28;20294;-65
2023/11/03 07:13:31;;;;;;;4.77;2.63;;;;;;;;;;4114372;28;20093;-64
2023/11/03 07:15:36;;;;;;;8.30;2.90;;;;;;;;;;4114352;28;20049;-64
2023/11/03 07:17:38;;;;;;;9.38;5.60;;;;;;;;;;4114480;28;20054;-64
2023/11/03 07:19:40;;;;;;;11.98;4.05;;;;;;;;;;4124345;28;20060;-65
2023/11/03 07:21:42;;;;;;;8.35;2.95;;;;;;;;;;4130279;28;20406;-65
2023/11/03 07:23:43;;;;;;;8.15;3.53;;;;;;;;;;4130340;28;20038;-64
2023/11/03 07:25:45;;;;;;;9.02;3.40;;;;;;;;;;4130330;28;20046;-65
2023/11/03 07:27:47;;;;;;;5.67;1.93;;;;;;;;;;4130041;28;20050;-64
2023/11/03 07:29:49;;;;;;;5.22;2.88;;;;;;;;;;4130064;28;20285;-63
2023/11/03 07:31:50;;;;;;;10.17;2.30;;;;;;;;;;4130294;28;20054;-64
2023/11/03 07:33:54;;;;;;;7.77;4.13;;;;;;;;;;4130543;28;20038;-63
2023/11/03 07:35:56;;;;;;;7.43;3.63;;;;;;;;;;4130412;28;20043;-65
2023/11/03 07:37:57;;;;;;;9.50;3.37;;;;;;;;;;4140903;28;20049;-64
2023/11/03 07:39:59;;;;;;;5.23;2.57;;;;;;;;;;4146448;28;20373;-64
2023/11/03 07:42:04;;;;;;;4.22;3.20;;;;;;;;;;4144809;28;20585;-64
2023/11/03 07:44:05;;;;;;;4.72;3.25;;;;;;;;;;4128893;28;20038;-67
2023/11/03 07:46:07;;;;;;;6.53;2.40;;;;;;;;;;4129310;28;20093;-67
2023/11/03 07:48:09;;;;;;;6.80;2.92;;;;;;;;;;4129838;28;20289;-68
2023/11/03 07:50:11;;;;;;;5.90;3.50;;;;;;;;;;4129368;28;20454;-68
2023/11/03 07:52:13;;;;;;;8.65;3.38;;;;;;;;;;4128397;28;20414;-68
2023/11/03 07:54:15;;;;;;;7.43;4.45;;;;;;;;;;4127358;28;20043;-68
2023/11/03 07:56:17;;;;;;;7.45;3.85;;;;;;;;;;4111264;28;20071;-68
2023/11/03 07:58:20;;;;;;;8.75;3.25;;;;;;;;;;4113727;28;20495;-68
2023/11/03 08:00:24;;;;;;;9.55;3.70;;;;;;;;;;4125536;28;20046;-68
2023/11/03 08:02:25;;;;;;;6.05;2.83;;;;;;;;;;4129141;28;20049;-67
2023/11/03 08:04:27;;;;;;;4.78;3.60;;;;;;;;;;4129606;28;20043;-68
2023/11/03 08:06:29;;;;;;;3.13;2.05;;;;;;;;;;4127844;28;20047;-67
2023/11/03 08:08:31;;;;;;;7.03;2.92;;;;;;;;;;4128982;28;20046;-68
2023/11/03 08:10:33;;;;;;;3.75;2.70;;;;;;;;;;4129930;28;20042;-68
2023/11/03 08:12:38;;;;;;;7.90;2.05;;;;;;;;;;4125732;28;20046;-68
2023/11/03 08:14:40;;;;;;;6.95;3.17;;;;;;;;;;4113787;28;20138;-69
2023/11/03 08:16:45;;;;;;;4.95;2.38;;;;;;;;;;4131653;28;20112;-67
2023/11/03 08:18:47;;;;;;;4.55;2.58;;;;;;;;;;4131817;28;20042;-67
2023/11/03 08:20:49;;;;;;;7.43;4.13;;;;;;;;;;4132627;28;20053;-67
2023/11/03 08:22:51;;;;;;;6.03;2.10;;;;;;;;;;4131871;28;20061;-68
2023/11/03 08:24:52;;;;;;;7.53;2.80;;;;;;;;;;4132423;28;20081;-67
2023/11/03 08:26:54;;;;;;;6.38;3.38;;;;;;;;;;4132639;28;20046;-67
2023/11/03 08:28:56;;;;;;;4.37;3.60;;;;;;;;;;4132577;28;20499;-68
2023/11/03 08:30:58;;;;;;;9.55;2.88;;;;;;;;;;4132962;28;20038;-68
2023/11/03 08:32:59;;;;;;;5.07;2.83;;;;;;;;;;4133747;28;20070;-68
2023/11/03 08:35:04;;;;;;;3.08;2.28;;;;;;;;;;4142373;28;20673;-68
2023/11/03 08:37:06;;;;;;;2.47;2.38;;;;;;;;;;4131073;28;20430;-67
2023/11/03 08:39:15;;;;;;;5.18;2.67;;;;;;;;;;4132258;28;20510;-67
2023/11/03 08:41:30;;;;;;;6.03;2.65;;;;;;;;;;4132293;28;20046;-67
2023/11/03 08:43:32;;;;;;;4.32;2.63;;;;;;;;;;4131283;28;20458;-67
2023/11/03 08:45:34;;;;;;;4.72;2.47;;;;;;;;;;4131961;28;20069;-67
2023/11/03 08:47:36;;;;;;;5.25;2.58;;;;;;;;;;4131546;28;20058;-67
2023/11/03 08:49:38;;;;;;;5.05;3.22;;;;;;;;;;4131307;28;20038;-66
2023/11/03 08:51:40;;;;;;;3.95;2.05;;;;;;;;;;4130475;28;20485;-67
2023/11/03 08:53:43;;;;;;;5.85;2.53;;;;;;;;;;4132590;28;20128;-67
2023/11/03 08:55:44;;;;;;;7.60;2.20;;;;;;;;;;4131876;28;20092;-67
2023/11/03 08:57:46;;;;;;;4.40;1.73;;;;;;;;;;4131429;28;20042;-68
2023/11/03 08:59:48;;;;;;;5.43;2.30;;;;;;;;;;4128617;28;20034;-66
2023/11/03 09:01:55;;;;;;;5.95;1.77;;;;;;;;;;4132039;28;20054;-68
2023/11/03 09:03:58;;;;;;;7.90;2.08;;;;;;;;;;4131324;28;20116;-67
2023/11/03 09:06:02;;;;;;;6.78;1.65;;;;;;;;;;4131582;28;20058;-67
2023/11/03 09:08:03;;;;;;;4.80;2.20;;;;;;;;;;4132132;28;20047;-67
2023/11/03 09:10:06;;;;;;;7.15;2.83;;;;;;;;;;4129455;28;20040;-66
2023/11/03 09:12:08;;;;;;;13.07;2.25;;;;;;;;;;4131301;28;20093;-66
2023/11/03 09:14:10;;;;;;;7.70;2.08;;;;;;;;;;4101099;28;20050;-66
2023/11/03 09:16:11;;;;;;;5.72;2.60;;;;;;;;;;4115786;28;20039;-67
2023/11/03 09:18:14;;;;;;;5.97;2.00;;;;;;;;;;4125443;28;20038;-66
2023/11/03 09:20:17;;;;;;;3.38;2.00;;;;;;;;;;4131683;28;20053;-67
2023/11/03 09:22:20;;;;;;;4.50;1.83;;;;;;;;;;4130810;28;20049;-66
2023/11/03 09:24:34;;;;;;;8.13;3.50;;;;;;;;;;4131575;28;20061;-67
2023/11/03 09:26:35;;;;;;;9.43;2.03;;;;;;;;;;4131632;28;20050;-67
2023/11/03 09:28:38;;;;;;;7.85;2.85;;;;;;;;;;4132105;28;20046;-66
2023/11/03 09:30:42;;;;;;;4.05;1.83;;;;;;;;;;4144281;28;20124;-66
2023/11/03 09:32:47;;;;;;;5.15;2.13;;;;;;;;;;4147772;28;20089;-66
2023/11/03 09:34:49;;;;;;;5.82;2.67;;;;;;;;;;4148071;28;20038;-66
2023/11/03 09:36:51;;;;;;;4.10;2.60;;;;;;;;;;4148244;28;20042;-66
2023/11/03 09:38:53;;;;;;;3.88;1.55;;;;;;;;;;4147710;28;20098;-66
2023/11/03 09:40:54;;;;;;;4.43;1.67;;;;;;;;;;4147875;28;20042;-66
2023/11/03 09:42:59;;;;;;;2.20;1.92;;;;;;;;;;4147946;28;20042;-66
2023/11/03 09:45:01;;;;;;;2.63;2.42;;;;;;;;;;4143797;28;20068;-67
2023/11/03 09:47:03;;;;;;;3.97;2.03;;;;;;;;;;4122830;28;20046;-67
2023/11/03 09:49:06;;;;;;;8.52;1.75;;;;;;;;;;4128278;28;20066;-67
2023/11/03 09:51:09;;;;;;;6.00;2.05;;;;;;;;;;4130721;28;20046;-66
2023/11/03 09:53:15;;;;;;;1.85;1.30;;;;;;;;;;4131420;28;20042;-66
2023/11/03 09:55:21;;;;;;;5.75;2.47;;;;;;;;;;4131453;28;20073;-67
2023/11/03 09:57:23;;;;;;;4.45;2.20;;;;;;;;;;4131689;28;20049;-66
2023/11/03 09:59:25;;;;;;;4.18;2.35;;;;;;;;;;4131461;28;20045;-67
2023/11/03 10:01:27;;;;;;;4.28;2.15;;;;;;;;;;4116085;28;20042;-66
2023/11/03 10:03:29;;;;;;;;;;;;;;;;;;4115442;28;20094;-66
2023/11/03 10:05:33;;;;;;;7.10;2.08;;;;;;;;;;4115129;28;19922;-66
2023/11/03 10:07:35;;;;;;;2.22;1.30;;;;;;;;;;4115219;28;20072;-67
2023/11/03 10:09:40;;;;;;;1.42;1.33;;;;;;;;;;4126449;28;20414;-66
2023/11/03 10:11:45;;;;;;;3.67;2.05;;;;;;;;;;4131298;28;20122;-67
2023/11/03 10:13:47;;;;;;;3.45;1.70;;;;;;;;;;4131094;28;20470;-66
2023/11/03 10:15:49;;;;;;;6.95;1.80;;;;;;;;;;4130977;28;20049;-67
2023/11/03 10:17:51;;;;;;;4.78;1.20;;;;;;;;;;4130052;28;20042;-67
2023/11/03 10:19:55;;;;;;;6.25;2.28;;;;;;;;;;4131153;28;20101;-67
2023/11/03 10:22:06;;;;;;;3.58;1.15;;;;;;;;;;4097178;28;20083;-67
2023/11/03 10:24:07;;;;;;;3.83;1.40;;;;;;;;;;4131418;28;20043;-67
2023/11/03 10:26:09;;;;;;;3.13;1.40;;;;;;;;;;4131031;28;20061;-67
2023/11/03 10:28:11;;;;;;;5.05;1.73;;;;;;;;;;4131417;28;20042;-67
2023/11/03 10:30:13;;;;;;;1.90;1.73;;;;;;;;;;4136317;28;20101;-67
2023/11/03 10:32:15;;;;;;;1.70;1.60;;;;;;;;;;4131093;28;20081;-66
2023/11/03 10:34:19;;;;;;;3.42;1.52;;;;;;;;;;4129872;28;20703;-67
2023/11/03 10:36:24;;;;;;;6.00;1.48;;;;;;;;;;4128940;28;20060;-66
2023/11/03 10:38:26;;;;;;;3.03;1.98;;;;;;;;;;4130385;28;20065;-67
2023/11/03 10:40:28;;;;;;;5.32;1.60;;;;;;;;;;4129924;28;20042;-67
2023/11/03 10:42:30;;;;;;;1.92;1.65;;;;;;;;;;4130815;28;20042;-67
2023/11/03 10:44:32;;;;;;;2.50;2.00;;;;;;;;;;4130085;28;20052;-67
2023/11/03 10:46:35;;;;;;;;;;;;;;;;;;4130053;28;20123;-66
2023/11/03 10:48:43;;;;;;;2.90;1.35;;;;;;;;;;4130173;28;20293;-67
2023/11/03 10:50:51;;;;;;;1.30;1.20;;;;;;;;;;4130049;28;20045;-67
2023/11/03 10:52:57;;;;;;;4.05;1.33;;;;;;;;;;4130988;28;20046;-66
2023/11/03 10:55:06;;;;;;;4.85;1.25;;;;;;;;;;4130954;28;20039;-66
2023/11/03 10:57:10;;;;;;;8.60;1.30;;;;;;;;;;4129167;28;20042;-67
2023/11/03 10:59:33;;;;;;;6.70;1.50;;;;;;;;;;4128036;28;20074;-67
2023/11/03 11:01:41;;;;;;;3.58;1.67;;;;;;;;;;4130856;28;20393;-67
2023/11/03 11:03:54;;;;;;;2.47;1.30;;;;;;;;;;4128970;28;20049;-66
2023/11/03 11:05:57;;;;;;;;;;;;;;;;;;4129828;28;20109;-66
2023/11/03 11:08:01;;;;;;;2.17;1.80;;;;;;;;;;4128471;28;19928;-67
2023/11/03 11:10:03;;;;;;;4.60;1.55;;;;;;;;;;4129339;28;20069;-66
2023/11/03 11:12:05;;;;;;;;;;;;;;;;;;4130148;28;20038;-67
2023/11/03 11:14:20;;;;;;;3.03;1.38;;;;;;;;;;4130605;28;19922;-67
2023/11/03 11:16:22;;;;;;;2.67;1.10;;;;;;;;;;4129950;28;20049;-67
2023/11/03 11:18:25;;;;;;;5.40;1.55;;;;;;;;;;4129708;28;20495;-67
2023/11/03 11:20:28;;;;;;;1.02;1.00;;;;;;;;;;4118443;28;20090;-67
2023/11/03 11:22:44;;;;;;;10.13;1.27;;;;;;;;;;4124742;28;20043;-67
2023/11/03 11:24:47;;;;;;;3.33;1.45;;;;;;;;;;4125114;28;20046;-67
2023/11/03 11:26:52;;;;;;;4.32;1.20;;;;;;;;;;4128548;28;20046;-67
2023/11/03 11:28:54;;;;;;;1.38;1.27;;;;;;;;;;4127609;28;20045;-67
2023/11/03 11:30:56;;;;;;;1.52;1.40;;;;;;;;;;4123494;28;20031;-67
2023/11/03 11:32:57;;;;;;;1.75;1.42;;;;;;;;;;4130457;28;20518;-67
2023/11/03 11:34:59;;;;;;;3.67;1.13;;;;;;;;;;4129871;28;20038;-67
2023/11/03 11:37:21;;;;;;;2.05;1.95;;;;;;;;;;4113173;28;20479;-66
2023/11/03 11:39:23;;;;;;;5.93;1.60;;;;;;;;;;4129279;28;20038;-67
2023/11/03 11:41:26;;;;;;;5.47;1.10;;;;;;;;;;4129561;28;20055;-67
2023/11/03 11:43:28;;;;;;;1.60;1.60;;;;;;;;;;4130401;28;20046;-66
2023/11/03 11:45:46;;;;;;;3.50;1.75;;;;;;;;;;4129759;28;20125;-66
2023/11/03 11:47:48;;;;;;;;;;;;;;;;;;4131773;28;20089;-67
2023/11/03 11:49:54;;;;;;;1.73;1.33;;;;;;;;;;4133457;28;20630;-67
2023/11/03 11:51:58;;;;;;;2.45;1.00;;;;;;;;;;4127592;28;20285;-67
2023/11/03 11:54:01;;;;;;;1.73;1.00;;;;;;;;;;4132727;28;20046;-67
2023/11/03 11:56:05;;;;;;;1.42;1.30;;;;;;;;;;4130390;28;20434;-68
2023/11/03 11:58:07;;;;;;;1.23;1.23;;;;;;;;;;4131059;28;20038;-68
2023/11/03 12:00:15;;;;;;;3.53;1.10;;;;;;;;;;4132981;28;20402;-67
2023/11/03 12:02:20;;;;;;;2.75;1.30;;;;;;;;;;4128060;28;20042;-67
2023/11/03 12:04:23;;;;;;;3.03;1.10;;;;;;;;;;4130188;28;20046;-68
2023/11/03 12:06:25;;;;;;;2.15;1.38;;;;;;;;;;4120126;28;20502;-67
2023/11/03 12:08:27;;;;;;;9.68;1.60;;;;;;;;;;4132148;28;20070;-67
2023/11/03 12:10:33;;;;;;;2.83;1.20;;;;;;;;;;4130707;28;20480;-68
2023/11/03 12:12:35;;;;;;;2.25;1.40;;;;;;;;;;4133128;28;20077;-67
2023/11/03 12:14:37;;;;;;;3.33;1.50;;;;;;;;;;4131287;28;20126;-67
2023/11/03 12:16:39;;;;;;;;;;;;;;;;;;4128532;28;20035;-67
2023/11/03 12:18:41;;;;;;;2.65;1.20;;;;;;;;;;4130423;28;19926;-67